Time;durP1;ratioP1;P1;durP2;ratioP2;P2;SDS_P1;SDS_P2;PMS_P1;PMS_P2;Temp;Humidity;BMP_temperature;BMP_pressure;BME280_temperature;BME280_humidity;BME280_pressure;Samples;Min_cycle;Max_cycle;Signal;HPM_P1;HPM_P2
2023/02/22 00:01:20;;;;;;;27.02;18.52;;;;;;;7.74;100.00;101694.84;10216869;28;20136;-69
2023/02/22 00:06:19;;;;;;;27.27;19.00;;;;;;;7.74;100.00;101686.69;10217355;28;20462;-69
2023/02/22 00:11:17;;;;;;;31.80;21.65;;;;;;;7.71;100.00;101684.53;10216044;28;20081;-69
2023/02/22 00:16:19;;;;;;;33.90;21.85;;;;;;;7.61;100.00;101681.81;10221695;28;20504;-68
2023/02/22 00:21:17;;;;;;;30.95;20.98;;;;;;;7.61;100.00;101678.28;10219002;28;20506;-68
2023/02/22 00:26:18;;;;;;;39.25;21.30;;;;;;;7.53;100.00;101683.19;10220304;28;20041;-68
2023/02/22 00:31:15;;;;;;;30.92;20.35;;;;;;;7.53;100.00;101676.94;10219287;28;20133;-68
2023/02/22 00:36:13;;;;;;;36.10;20.77;;;;;;;7.51;100.00;101668.22;10219889;28;20045;-69
2023/02/22 00:41:11;;;;;;;34.20;19.58;;;;;;;7.54;100.00;101668.50;10222103;28;20061;-69
2023/02/22 00:46:07;;;;;;;31.90;19.25;;;;;;;7.47;100.00;101667.97;10217192;28;20050;-69
2023/02/22 00:51:04;;;;;;;31.98;17.73;;;;;;;7.51;100.00;101668.22;10220494;28;20050;-68
2023/02/22 00:56:00;;;;;;;27.67;17.33;;;;;;;7.51;100.00;101674.47;10208195;28;20123;-69
2023/02/22 01:00:57;;;;;;;42.53;20.85;;;;;;;7.54;100.00;101673.09;10214074;28;20389;-69
2023/02/22 01:05:53;;;;;;;36.75;20.35;;;;;;;7.51;100.00;101677.19;10228793;28;20050;-69
2023/02/22 01:10:51;;;;;;;36.85;19.88;;;;;;;7.50;100.00;101666.59;10213202;28;20605;-69
2023/02/22 01:15:47;;;;;;;45.60;21.27;;;;;;;7.49;100.00;101660.31;10220486;28;20061;-69
2023/02/22 01:20:46;;;;;;;42.45;20.80;;;;;;;7.46;100.00;101665.50;10218141;28;20052;-68
2023/02/22 01:25:43;;;;;;;66.10;23.80;;;;;;;7.35;100.00;101660.06;10219518;28;20449;-69
2023/02/22 01:30:39;;;;;;;41.83;20.25;;;;;;;7.37;100.00;101663.31;10223856;28;20050;-68
2023/02/22 01:35:40;;;;;;;39.58;19.15;;;;;;;7.47;100.00;101658.97;10206818;28;20048;-69
2023/02/22 01:40:40;;;;;;;41.53;20.15;;;;;;;7.43;100.00;101655.19;10214125;28;20069;-68
2023/02/22 01:45:42;;;;;;;37.00;18.83;;;;;;;7.41;100.00;101646.47;10222033;28;20486;-68
2023/02/22 01:50:43;;;;;;;56.97;22.98;;;;;;;7.36;100.00;101639.94;10218520;28;20045;-69
2023/02/22 01:55:40;;;;;;;42.92;21.50;;;;;;;7.34;100.00;101642.13;10209767;28;20061;-69
2023/02/22 02:00:38;;;;;;;40.65;21.05;;;;;;;7.40;100.00;101633.94;10222598;28;20069;-70
2023/02/22 02:05:36;;;;;;;52.22;23.05;;;;;;;7.47;100.00;101638.03;10212957;28;20556;-69
2023/02/22 02:10:33;;;;;;;43.78;21.67;;;;;;;7.49;100.00;101635.00;10218542;28;20068;-68
2023/02/22 02:15:32;;;;;;;38.15;19.80;;;;;;;7.50;100.00;101634.75;10221773;28;20103;-68
2023/02/22 02:20:37;;;;;;;46.00;21.17;;;;;;;7.53;100.00;101633.38;10215754;28;20048;-68
2023/02/22 02:26:11;;;;;;;54.75;23.75;;;;;;;7.50;100.00;101629.31;10225024;28;20105;-68
2023/02/22 02:31:45;;;;;;;66.40;24.25;;;;;;;7.45;100.00;101632.03;10224361;28;20103;-69
2023/02/22 02:37:26;;;;;;;50.60;24.40;;;;;;;7.44;100.00;101629.59;10207236;28;20097;-69
2023/02/22 02:42:32;;;;;;;48.90;22.70;;;;;;;7.40;100.00;101623.06;10214189;28;20136;-69
2023/02/22 02:47:33;;;;;;;75.53;24.85;;;;;;;7.33;100.00;101621.44;10209228;28;20137;-69
2023/02/22 02:52:33;;;;;;;45.20;21.50;;;;;;;7.36;100.00;101606.47;10218832;28;20049;-69
2023/02/22 02:57:29;;;;;;;44.63;21.48;;;;;;;7.43;100.00;101607.00;10222310;28;20052;-69
2023/02/22 03:02:52;;;;;;;54.97;24.02;;;;;;;7.34;100.00;101598.59;10228078;28;20551;-70
2023/02/22 03:07:57;;;;;;;39.95;20.83;;;;;;;7.40;100.00;101598.56;10219107;28;20057;-70
2023/02/22 03:12:59;;;;;;;43.35;21.52;;;;;;;7.29;100.00;101595.88;10229555;28;20045;-70
2023/02/22 03:18:05;;;;;;;50.08;23.02;;;;;;;7.27;100.00;101592.63;10212830;28;20057;-70
2023/02/22 03:23:27;;;;;;;37.00;20.73;;;;;;;7.38;100.00;101583.34;10220111;28;20050;-70
2023/02/22 03:28:27;;;;;;;33.45;21.20;;;;;;;7.33;100.00;101580.66;10225579;28;20050;-69
2023/02/22 03:33:32;;;;;;;32.65;20.48;;;;;;;7.36;100.00;101573.84;10214779;28;20100;-69
2023/02/22 03:38:32;;;;;;;43.80;20.58;;;;;;;7.15;100.00;101568.41;10231467;28;20048;-68
2023/02/22 03:43:36;;;;;;;25.70;17.75;;;;;;;7.34;100.00;101576.81;10220164;28;20042;-68
2023/02/22 03:48:44;;;;;;;35.60;19.52;;;;;;;7.33;100.00;101577.09;10226372;28;20065;-69
2023/02/22 03:53:43;;;;;;;26.60;17.38;;;;;;;7.43;100.00;101579.00;10221744;28;20629;-70
2023/02/22 03:58:46;;;;;;;29.60;17.92;;;;;;;7.41;100.00;101575.72;10210573;28;20419;-70
2023/02/22 04:03:43;;;;;;;33.92;19.98;;;;;;;7.31;100.00;101577.38;10221001;28;20769;-68
2023/02/22 04:08:39;;;;;;;29.27;19.58;;;;;;;7.33;100.00;101575.19;10217977;28;20129;-69
2023/02/22 04:13:36;;;;;;;29.45;19.48;;;;;;;7.30;100.00;101570.28;10226835;28;20132;-69
2023/02/22 04:18:32;;;;;;;27.60;18.35;;;;;;;7.35;100.00;101578.44;10227117;28;20042;-69
2023/02/22 04:23:28;;;;;;;26.75;20.63;;;;;;;7.37;100.00;101581.69;10227430;28;20072;-69
2023/02/22 04:28:25;;;;;;;33.92;21.20;;;;;;;7.27;100.00;101581.72;10214506;28;20418;-69
2023/02/22 04:33:21;;;;;;;35.42;20.35;;;;;;;7.36;100.00;101580.09;10222018;28;20053;-69
2023/02/22 04:38:18;;;;;;;47.00;22.27;;;;;;;7.26;100.00;101580.09;10214871;28;20037;-69
2023/02/22 04:43:14;;;;;;;35.25;21.10;;;;;;;7.29;100.00;101576.84;10215806;28;20042;-68
2023/02/22 04:48:11;;;;;;;25.50;19.30;;;;;;;7.34;100.00;101576.00;10214323;28;20049;-68
2023/02/22 04:53:07;;;;;;;28.67;20.58;;;;;;;7.44;100.00;101575.16;10219356;28;20099;-69
2023/02/22 04:58:04;;;;;;;29.50;20.15;;;;;;;7.52;100.00;101571.88;10212551;28;20041;-70
2023/02/22 05:03:00;;;;;;;31.23;21.35;;;;;;;7.51;100.00;101564.81;10200254;28;20045;-70
2023/02/22 05:07:57;;;;;;;28.48;20.45;;;;;;;7.49;100.00;101559.63;10219798;28;20046;-69
2023/02/22 05:12:54;;;;;;;38.15;22.88;;;;;;;7.33;100.00;101564.31;10211955;28;20141;-69
2023/02/22 05:17:51;;;;;;;39.00;23.85;;;;;;;7.38;100.00;101561.59;10223837;28;20049;-69
2023/02/22 05:22:47;;;;;;;36.05;22.13;;;;;;;7.40;100.00;101564.00;10211632;28;20038;-69
2023/02/22 05:27:44;;;;;;;39.67;23.33;;;;;;;7.45;100.00;101563.19;10216360;28;20128;-70
2023/02/22 05:32:41;;;;;;;41.60;23.90;;;;;;;7.47;100.00;101564.56;10213262;28;20041;-70
2023/02/22 05:37:37;;;;;;;36.50;22.80;;;;;;;7.52;100.00;101569.16;10215405;28;20049;-69
2023/02/22 05:42:34;;;;;;;65.18;27.48;;;;;;;7.39;100.00;101567.84;10219251;28;20126;-69
2023/02/22 05:47:31;;;;;;;41.28;22.92;;;;;;;7.51;100.00;101570.25;10215352;28;20099;-69
2023/02/22 05:52:27;;;;;;;48.60;24.75;;;;;;;7.50;100.00;101564.00;10207343;28;20045;-69
2023/02/22 05:57:24;;;;;;;40.80;22.25;;;;;;;7.50;100.00;101557.75;10192981;28;20056;-69
2023/02/22 06:02:20;;;;;;;43.03;24.58;;;;;;;7.46;100.00;101556.66;10206327;28;20064;-69
2023/02/22 06:07:17;;;;;;;38.33;22.67;;;;;;;7.48;100.00;101549.84;10217838;28;20049;-70
2023/02/22 06:12:13;;;;;;;43.80;23.90;;;;;;;7.41;100.00;101554.78;10221067;28;20141;-69
2023/02/22 06:17:10;;;;;;;41.45;23.80;;;;;;;7.50;100.00;101561.28;10207063;28;20153;-70
2023/02/22 06:22:07;;;;;;;40.15;23.05;;;;;;;7.47;100.00;101561.84;10207851;28;20096;-70
2023/02/22 06:27:03;;;;;;;41.78;23.92;;;;;;;7.52;100.00;101558.25;10225882;28;20101;-70
2023/02/22 06:32:00;;;;;;;43.60;24.27;;;;;;;7.51;100.00;101570.25;10223253;28;20050;-69
2023/02/22 06:36:56;;;;;;;44.78;24.77;;;;;;;7.57;100.00;101569.16;10222541;28;20045;-71
2023/02/22 06:41:56;;;;;;;48.58;25.35;;;;;;;7.44;100.00;101570.53;10225262;28;20125;-70
2023/02/22 06:46:53;;;;;;;53.80;25.77;;;;;;;7.51;100.00;101570.25;10210134;28;20958;-70
2023/02/22 06:51:49;;;;;;;47.25;24.67;;;;;;;7.55;100.00;101565.91;10216531;28;20188;-70
2023/02/22 06:56:46;;;;;;;48.97;23.98;;;;;;;7.52;100.00;101566.44;10211097;28;20141;-70
2023/02/22 07:01:43;;;;;;;46.67;23.90;;;;;;;7.54;100.00;101566.97;10213611;28;20068;-71
2023/02/22 07:06:44;;;;;;;49.17;23.42;;;;;;;7.59;100.00;101569.69;10216572;28;20041;-72
2023/02/22 07:11:41;;;;;;;53.93;26.13;;;;;;;7.61;100.00;101575.66;10215865;28;20073;-70
2023/02/22 07:16:38;;;;;;;40.58;22.17;;;;;;;7.57;100.00;101569.16;10221251;28;20045;-70
2023/02/22 07:21:34;;;;;;;48.40;25.65;;;;;;;7.59;100.00;101566.97;10209814;28;20133;-70
2023/02/22 07:26:38;;;;;;;45.20;24.83;;;;;;;7.65;100.00;101571.28;10223187;28;20050;-69
2023/02/22 07:31:37;;;;;;;54.92;25.85;;;;;;;7.62;100.00;101566.41;10212917;28;20073;-70
2023/02/22 07:36:33;;;;;;;45.17;23.20;;;;;;;7.56;100.00;101567.50;10213558;28;20562;-71
2023/02/22 07:41:30;;;;;;;74.95;27.88;;;;;;;7.57;100.00;101558.28;10217284;28;20055;-70
2023/02/22 07:46:26;;;;;;;49.08;24.55;;;;;;;7.63;100.00;101565.31;10213680;28;20084;-71
2023/02/22 07:51:23;;;;;;;47.25;22.77;;;;;;;7.64;100.00;101558.78;10215910;28;20125;-70
2023/02/22 07:56:19;;;;;;;56.55;24.83;;;;;;;7.64;100.00;101553.34;10218697;28;20137;-70
2023/02/22 08:01:16;;;;;;;42.25;22.55;;;;;;;7.79;100.00;101550.56;10219845;28;20053;-70
2023/02/22 08:06:13;;;;;;;43.97;22.80;;;;;;;7.79;100.00;101550.56;10224622;28;20507;-70
2023/02/22 08:11:09;;;;;;;40.92;22.60;;;;;;;7.88;100.00;101542.63;10225022;28;20065;-70
2023/02/22 08:16:06;;;;;;;39.72;22.40;;;;;;;7.97;100.00;101535.50;10219429;28;20136;-70
2023/02/22 08:21:02;;;;;;;46.55;24.20;;;;;;;7.95;100.00;101539.59;10212639;28;20154;-70
2023/02/22 08:26:07;;;;;;;35.78;21.92;;;;;;;8.04;100.00;101529.75;10219714;28;20477;-70
2023/02/22 08:31:06;;;;;;;38.67;22.90;;;;;;;7.99;100.00;101529.78;10226452;28;20058;-70
2023/02/22 08:36:03;;;;;;;30.35;19.63;;;;;;;8.16;100.00;101532.94;10209422;28;20060;-70
2023/02/22 08:40:59;;;;;;;35.28;20.15;;;;;;;8.20;100.00;101528.56;10212918;28;20458;-70
2023/02/22 08:45:56;;;;;;;32.20;20.90;;;;;;;8.35;100.00;101518.66;10212193;28;20504;-70
2023/02/22 08:50:53;;;;;;;28.77;19.27;;;;;;;8.37;100.00;101527.38;10210194;28;20100;-70
2023/02/22 08:55:50;;;;;;;34.65;22.15;;;;;;;8.25;100.00;101525.00;10214098;28;20604;-70
2023/02/22 09:00:46;;;;;;;29.08;20.88;;;;;;;8.44;100.00;101525.16;10218610;28;20053;-70
2023/02/22 09:05:43;;;;;;;38.08;22.08;;;;;;;8.45;100.00;101524.09;10229175;28;20045;-70
2023/02/22 09:10:40;;;;;;;35.67;22.85;;;;;;;8.72;100.00;101509.13;10212337;28;20092;-70
2023/02/22 09:15:38;;;;;;;31.48;21.00;;;;;;;8.89;100.00;101506.81;10229586;28;20053;-70
2023/02/22 09:20:35;;;;;;;33.35;21.20;;;;;;;8.89;100.00;101517.72;10225214;28;20049;-70
2023/02/22 09:25:33;;;;;;;30.23;19.77;;;;;;;8.77;100.00;101514.53;10223392;28;20610;-70
2023/02/22 09:30:32;;;;;;;28.63;18.98;;;;;;;8.46;100.00;101520.25;10222592;28;20050;-69
2023/02/22 09:35:29;;;;;;;32.65;19.08;;;;;;;8.38;100.00;101518.13;10206818;28;20108;-70
2023/02/22 09:40:31;;;;;;;31.85;18.52;;;;;;;8.31;100.00;101509.41;10211751;28;20054;-69
2023/02/22 09:45:35;;;;;;;31.17;20.15;;;;;;;8.36;100.00;101503.94;10218015;28;20403;-70
2023/02/22 09:50:36;;;;;;;29.98;18.58;;;;;;;8.31;100.00;101501.25;10216856;28;20095;-70
2023/02/22 09:55:50;;;;;;;34.20;21.13;;;;;;;8.26;100.00;101510.25;10230342;28;20052;-70
2023/02/22 10:00:50;;;;;;;34.25;21.55;;;;;;;8.45;100.00;101512.34;10219035;28;20495;-70
2023/02/22 10:06:08;;;;;;;38.55;22.83;;;;;;;8.39;100.00;101504.19;10219208;28;20118;-70
2023/02/22 10:11:17;;;;;;;32.97;19.98;;;;;;;8.64;100.00;101505.94;10205992;28;20069;-70
2023/02/22 10:16:47;;;;;;;30.40;19.10;;;;;;;8.75;100.00;101495.75;10207923;28;20100;-70
2023/02/22 10:21:52;;;;;;;28.50;20.15;;;;;;;8.76;100.00;101486.47;10216538;28;20049;-70
2023/02/22 10:26:49;;;;;;;29.10;19.17;;;;;;;8.76;100.00;101480.22;10206564;28;20048;-70
2023/02/22 10:31:53;;;;;;;28.10;18.55;;;;;;;8.80;100.00;101475.81;10224510;28;20045;-70
2023/02/22 10:36:58;;;;;;;28.70;17.85;;;;;;;9.08;100.00;101481.53;10216611;28;20052;-71
2023/02/22 10:42:06;;;;;;;28.42;17.77;;;;;;;9.23;100.00;101468.53;10220310;28;20052;-70
2023/02/22 10:47:07;;;;;;;28.08;15.90;;;;;;;9.23;100.00;101459.53;10214316;28;20099;-70
2023/02/22 10:52:28;;;;;;;29.33;17.33;;;;;;;9.46;100.00;101445.06;10207522;28;20537;-70
2023/02/22 10:57:31;;;;;;;27.25;17.33;;;;;;;10.58;100.00;101419.91;10222697;28;20774;-71
2023/02/22 11:02:34;;;;;;;24.40;16.95;;;;;;;10.87;100.00;101399.69;10227384;28;20078;-71
2023/02/22 11:07:33;;;;;;;25.75;16.92;;;;;;;10.58;100.00;101378.88;10225566;28;20752;-70
2023/02/22 11:12:32;;;;;;;28.77;19.20;;;;;;;11.07;100.00;101388.34;10219086;28;20049;-70
2023/02/22 11:17:32;;;;;;;28.92;18.00;;;;;;;11.22;100.00;101372.72;10212814;28;20068;-70
2023/02/22 11:22:40;;;;;;;25.30;17.77;;;;;;;11.41;100.00;101370.66;10230041;28;20056;-70
2023/02/22 11:27:42;;;;;;;25.80;17.92;;;;;;;11.95;100.00;101349.72;10223135;28;20411;-70
2023/02/22 11:32:46;;;;;;;26.35;18.20;;;;;;;12.23;100.00;101341.38;10217828;28;20049;-71
2023/02/22 11:37:43;;;;;;;27.58;18.52;;;;;;;12.18;100.00;101327.75;10208893;28;20130;-70
2023/02/22 11:42:39;;;;;;;21.77;15.82;;;;;;;12.51;100.00;101319.22;10211521;28;20068;-70
2023/02/22 11:47:59;;;;;;;21.10;15.30;;;;;;;12.92;100.00;101312.59;10230511;28;20088;-71
2023/02/22 11:53:24;;;;;;;23.17;15.43;;;;;;;12.22;100.00;101306.81;10218640;28;20550;-71
2023/02/22 11:58:23;;;;;;;22.15;15.77;;;;;;;13.12;100.00;101295.53;10179136;28;20129;-71
2023/02/22 12:03:19;;;;;;;23.77;15.55;;;;;;;13.17;100.00;101287.13;10225883;28;20140;-70
2023/02/22 12:08:44;;;;;;;23.05;14.93;;;;;;;12.60;100.00;101289.88;10221424;28;20053;-70
2023/02/22 12:13:55;;;;;;;21.33;14.02;;;;;;;12.48;100.00;101282.25;10213074;28;20050;-71
2023/02/22 12:19:25;;;;;;;24.02;15.10;;;;;;;12.03;100.00;101287.06;10231190;28;20037;-71
2023/02/22 12:24:27;;;;;;;24.40;16.30;;;;;;;11.67;100.00;101275.00;10221721;28;20045;-70
2023/02/22 12:29:32;;;;;;;22.60;15.82;;;;;;;11.71;100.00;101280.69;10217079;28;20599;-71
2023/02/22 12:34:40;;;;;;;25.35;15.55;;;;;;;11.92;100.00;101276.34;10211888;28;20052;-71
2023/02/22 12:39:52;;;;;;;21.95;15.05;;;;;;;11.94;100.00;101259.59;10214260;28;20069;-70
2023/02/22 12:45:05;;;;;;;21.23;15.43;;;;;;;12.50;100.00;101260.00;10211793;28;20373;-71
2023/02/22 12:50:27;;;;;;;23.15;17.02;;;;;;;12.45;100.00;101260.16;10210277;28;20072;-68
2023/02/22 12:55:31;;;;;;;21.45;15.55;;;;;;;12.15;100.00;101262.59;10217734;28;20503;-69
2023/02/22 13:00:45;;;;;;;21.05;15.68;;;;;;;11.91;100.00;101258.28;10223669;28;20076;-69
2023/02/22 13:05:48;;;;;;;21.58;16.05;;;;;;;11.73;100.00;101262.03;10219171;28;20045;-69
2023/02/22 13:10:56;;;;;;;21.75;15.68;;;;;;;11.90;100.00;101256.66;10210168;28;20534;-69
2023/02/22 13:16:30;;;;;;;22.20;16.00;;;;;;;11.65;100.00;101249.06;10221245;28;20064;-69
2023/02/22 13:21:45;;;;;;;20.98;15.25;;;;;;;11.65;100.00;101251.78;10227762;28;20053;-69
2023/02/22 13:26:50;;;;;;;19.63;14.45;;;;;;;11.68;100.00;101242.97;10215820;28;20052;-65
2023/02/22 13:32:26;;;;;;;17.33;13.73;;;;;;;11.83;100.00;101250.00;10204127;28;20064;-66
2023/02/22 13:37:33;;;;;;;20.35;14.48;;;;;;;11.76;100.00;101234.00;10203072;28;20041;-66
2023/02/22 13:43:02;;;;;;;18.17;13.27;;;;;;;11.61;100.00;101226.19;10222145;28;20048;-66
2023/02/22 13:48:43;;;;;;;18.45;13.45;;;;;;;11.42;100.00;101229.09;10204113;28;20049;-66
2023/02/22 13:53:42;;;;;;;19.15;13.23;;;;;;;11.33;100.00;101226.31;10207076;28;20234;-66
2023/02/22 13:59:22;;;;;;;17.60;13.02;;;;;;;11.19;100.00;101220.06;10201343;28;20053;-66
2023/02/22 14:04:35;;;;;;;22.52;13.93;;;;;;;11.19;100.00;101225.56;10196252;28;20073;-68
2023/02/22 14:09:54;;;;;;;19.88;12.98;;;;;;;11.16;100.00;101227.78;10216875;28;20044;-68
2023/02/22 14:15:14;;;;;;;18.30;13.07;;;;;;;11.06;100.00;101230.72;10200944;28;20125;-68
2023/02/22 14:20:31;;;;;;;17.70;13.13;;;;;;;11.02;100.00;101223.44;10208881;28;20061;-68
2023/02/22 14:25:39;;;;;;;16.50;12.65;;;;;;;10.98;100.00;101226.00;10206349;28;20042;-66
2023/02/22 14:30:37;;;;;;;20.58;14.52;;;;;;;11.04;100.00;101224.75;10211321;28;20052;-66
2023/02/22 14:35:39;;;;;;;21.05;12.88;;;;;;;11.03;100.00;101225.88;10205823;28;20045;-68
2023/02/22 14:40:48;;;;;;;20.23;13.68;;;;;;;10.95;100.00;101223.88;10217253;28;20065;-66
2023/02/22 14:45:50;;;;;;;20.42;13.88;;;;;;;10.95;100.00;101226.59;10217477;28;20038;-68
2023/02/22 14:50:51;;;;;;;;;;;;;;;10.89;100.00;101216.91;10218431;28;20165;-67
2023/02/22 14:56:02;;;;;;;20.30;13.75;;;;;;;10.73;100.00;101217.25;10221938;28;19936;-67
2023/02/22 15:01:18;;;;;;;24.88;16.63;;;;;;;10.74;100.00;101220.78;10228428;28;20138;-67
2023/02/22 15:06:19;;;;;;;23.88;15.05;;;;;;;10.56;100.00;101218.97;10219328;28;20526;-67
2023/02/22 15:11:21;;;;;;;26.90;18.30;;;;;;;10.38;100.00;101213.31;10211898;28;20561;-67
2023/02/22 15:16:19;;;;;;;;;;;;;;;10.44;100.00;101216.75;10212802;28;20162;-67
2023/02/22 15:21:20;;;;;;;26.58;15.48;;;;;;;10.44;100.00;101216.75;10219410;28;20008;-67
2023/02/22 15:26:30;;;;;;;21.05;14.95;;;;;;;10.33;100.00;101216.16;10214653;28;20045;-67
2023/02/22 15:31:30;;;;;;;25.35;16.65;;;;;;;10.31;100.00;101213.72;10211152;28;20054;-67
2023/02/22 15:36:31;;;;;;;22.35;16.23;;;;;;;10.18;100.00;101214.50;10214960;28;20672;-67
2023/02/22 15:41:31;;;;;;;21.08;15.70;;;;;;;10.22;100.00;101214.72;10220489;28;20163;-68
2023/02/22 15:46:28;;;;;;;23.45;15.85;;;;;;;10.23;100.00;101205.38;10216042;28;20422;-67
2023/02/22 15:51:28;;;;;;;20.75;14.90;;;;;;;10.07;100.00;101196.69;10211238;28;20601;-67
2023/02/22 15:56:28;;;;;;;22.55;14.98;;;;;;;10.01;100.00;101203.38;10211286;28;20053;-67
2023/02/22 16:01:25;;;;;;;24.23;16.85;;;;;;;9.99;100.00;101197.41;10216998;28;20049;-67
2023/02/22 16:06:38;;;;;;;24.17;16.50;;;;;;;9.90;100.00;101203.53;10216072;28;20466;-67
2023/02/22 16:11:38;;;;;;;;;;;;;;;9.87;100.00;101204.16;10221540;28;20046;-67
2023/02/22 16:16:40;;;;;;;23.75;16.40;;;;;;;9.81;100.00;101205.34;10212795;28;19965;-67
2023/02/22 16:21:52;;;;;;;22.83;16.08;;;;;;;9.82;100.00;101212.44;10211849;28;20046;-67
2023/02/22 16:27:05;;;;;;;22.67;15.07;;;;;;;9.79;100.00;101215.75;10218937;28;20057;-67
2023/02/22 16:32:02;;;;;;;22.52;16.33;;;;;;;9.63;100.00;101215.22;10206104;28;20124;-67
2023/02/22 16:37:00;;;;;;;22.25;15.32;;;;;;;9.58;100.00;101217.22;10206746;28;20041;-67
2023/02/22 16:41:59;;;;;;;22.83;16.77;;;;;;;9.52;100.00;101223.91;10223492;28;20482;-67
2023/02/22 16:46:57;;;;;;;23.75;16.00;;;;;;;9.50;100.00;101228.84;10198782;28;20657;-67
2023/02/22 16:52:06;;;;;;;23.35;16.98;;;;;;;9.39;100.00;101220.78;10217508;28;20056;-67
2023/02/22 16:57:04;;;;;;;22.55;16.92;;;;;;;9.37;100.00;101228.47;10210304;28;20136;-67
2023/02/22 17:02:00;;;;;;;24.58;17.80;;;;;;;9.30;100.00;101228.03;10216787;28;20100;-67
2023/02/22 17:06:57;;;;;;;28.27;17.83;;;;;;;9.17;100.00;101239.72;10216848;28;20048;-67
2023/02/22 17:11:54;;;;;;;27.23;19.65;;;;;;;9.23;100.00;101238.50;10213990;28;20056;-67
2023/02/22 17:16:51;;;;;;;27.63;17.88;;;;;;;9.17;100.00;101234.25;10223477;28;20046;-67
2023/02/22 17:21:48;;;;;;;29.13;18.63;;;;;;;9.07;100.00;101246.09;10219082;28;20053;-67
2023/02/22 17:26:45;;;;;;;23.98;17.88;;;;;;;9.10;100.00;101239.25;10218069;28;20049;-67
2023/02/22 17:31:41;;;;;;;31.30;19.58;;;;;;;9.02;100.00;101232.53;10208667;28;20125;-67
2023/02/22 17:36:38;;;;;;;29.25;17.15;;;;;;;9.00;100.00;101230.09;10211737;28;20503;-67
2023/02/22 17:41:35;;;;;;;29.08;18.52;;;;;;;8.97;100.00;101244.34;10220202;28;20177;-67
2023/02/22 17:46:36;;;;;;;27.92;19.73;;;;;;;8.90;100.00;101241.16;10208262;28;20562;-67
2023/02/22 17:51:33;;;;;;;24.30;17.80;;;;;;;8.90;100.00;101246.63;10218500;28;20049;-67
2023/02/22 17:56:29;;;;;;;21.95;16.25;;;;;;;8.88;100.00;101254.28;10209183;28;20080;-67
2023/02/22 18:01:28;;;;;;;21.98;17.30;;;;;;;8.82;100.00;101256.28;10217751;28;20133;-67
2023/02/22 18:06:27;;;;;;;21.38;16.98;;;;;;;8.81;100.00;101259.28;10206503;28;20046;-67
2023/02/22 18:11:25;;;;;;;24.33;17.92;;;;;;;8.66;100.00;101262.19;10219585;28;20614;-67
2023/02/22 18:16:24;;;;;;;26.05;17.75;;;;;;;8.74;100.00;101264.28;10213188;28;20111;-67
2023/02/22 18:21:22;;;;;;;20.05;16.38;;;;;;;8.75;100.00;101260.44;10218526;28;20514;-67
2023/02/22 18:26:20;;;;;;;23.85;18.83;;;;;;;8.67;100.00;101266.56;10223037;28;20049;-67
2023/02/22 18:31:22;;;;;;;23.58;17.33;;;;;;;8.62;100.00;101260.06;10218339;28;20153;-67
2023/02/22 18:36:21;;;;;;;;;;;;;;;8.61;100.00;101250.28;10219099;28;20052;-67
2023/02/22 18:41:19;;;;;;;21.45;16.63;;;;;;;8.56;100.00;101253.06;10229572;28;20398;-67
2023/02/22 18:46:18;;;;;;;25.20;18.65;;;;;;;8.46;100.00;101250.44;10210864;28;20574;-67
2023/02/22 18:51:16;;;;;;;20.05;16.95;;;;;;;8.53;100.00;101253.63;10211818;28;20056;-67
2023/02/22 18:56:20;;;;;;;21.40;17.42;;;;;;;8.52;100.00;101254.75;10211509;28;20133;-67
2023/02/22 19:01:17;;;;;;;20.10;17.02;;;;;;;8.51;100.00;101250.38;10209662;28;20053;-67
2023/02/22 19:06:16;;;;;;;20.67;16.80;;;;;;;8.48;100.00;101253.69;10214926;28;20065;-67
2023/02/22 19:11:18;;;;;;;21.63;17.95;;;;;;;8.43;100.00;101251.84;10220248;28;20655;-67
2023/02/22 19:16:18;;;;;;;23.42;18.25;;;;;;;8.33;100.00;101254.66;10210905;28;20758;-67
2023/02/22 19:21:15;;;;;;;24.35;18.63;;;;;;;8.34;100.00;101244.56;10208179;28;20128;-67
2023/02/22 19:26:17;;;;;;;22.10;18.10;;;;;;;8.34;100.00;101250.00;10216787;28;20045;-67
2023/02/22 19:31:29;;;;;;;24.23;18.25;;;;;;;8.27;100.00;101250.34;10219662;28;20052;-67
2023/02/22 19:36:25;;;;;;;24.20;18.75;;;;;;;8.29;100.00;101247.34;10214880;28;20046;-67
2023/02/22 19:41:22;;;;;;;22.48;18.00;;;;;;;8.25;100.00;101243.56;10218627;28;20136;-67
2023/02/22 19:46:20;;;;;;;20.90;16.13;;;;;;;8.09;100.00;101242.94;10216681;28;20137;-67
2023/02/22 19:51:18;;;;;;;23.25;17.23;;;;;;;8.13;100.00;101239.34;10216711;28;20057;-67
2023/02/22 19:56:17;;;;;;;27.50;18.42;;;;;;;8.00;100.00;101235.38;10218590;28;20427;-67
2023/02/22 20:01:22;;;;;;;22.17;17.63;;;;;;;7.96;100.00;101230.78;10221612;28;20499;-67
2023/02/22 20:06:20;;;;;;;25.90;18.10;;;;;;;7.99;100.00;101233.75;10205267;28;20162;-67
2023/02/22 20:11:16;;;;;;;25.30;17.45;;;;;;;7.98;100.00;101236.75;10213064;28;20734;-67
2023/02/22 20:16:16;;;;;;;22.63;17.02;;;;;;;8.00;100.00;101234.56;10216091;28;20052;-67
2023/02/22 20:21:24;;;;;;;26.45;17.92;;;;;;;7.97;100.00;101235.16;10225127;28;20041;-67
2023/02/22 20:26:22;;;;;;;24.55;17.10;;;;;;;7.95;100.00;101229.16;10221481;28;20152;-67
2023/02/22 20:31:20;;;;;;;23.05;18.40;;;;;;;7.87;100.00;101230.63;10213262;28;20049;-66
2023/02/22 20:36:20;;;;;;;24.60;17.33;;;;;;;7.76;100.00;101229.88;10206346;28;20045;-67
2023/02/22 20:41:31;;;;;;;26.00;17.63;;;;;;;7.79;100.00;101229.31;10208995;28;20467;-67
2023/02/22 20:46:34;;;;;;;20.77;17.05;;;;;;;7.75;100.00;101225.56;10209958;28;20050;-67
2023/02/22 20:51:30;;;;;;;;;;;;;;;7.64;100.00;101220.50;10204207;28;20050;-66
2023/02/22 20:56:29;;;;;;;24.30;17.42;;;;;;;7.68;100.00;101219.63;10213999;28;20459;-67
2023/02/22 21:01:25;;;;;;;21.77;16.17;;;;;;;7.59;100.00;101219.44;10218485;28;20128;-67
2023/02/22 21:06:22;;;;;;;24.85;18.13;;;;;;;7.60;100.00;101220.22;10216707;28;20069;-67
2023/02/22 21:11:21;;;;;;;27.33;17.70;;;;;;;7.65;100.00;101216.66;10225891;28;20127;-67
2023/02/22 21:16:24;;;;;;;29.45;19.42;;;;;;;7.64;100.00;101221.28;10220995;28;20073;-67
2023/02/22 21:21:21;;;;;;;30.60;19.08;;;;;;;7.58;100.00;101217.00;10221272;28;20132;-67
2023/02/22 21:26:24;;;;;;;24.73;18.45;;;;;;;7.57;100.00;101210.75;10210783;28;20604;-66
2023/02/22 21:31:22;;;;;;;23.55;17.77;;;;;;;7.57;100.00;101218.09;10216174;28;20073;-67
2023/02/22 21:36:23;;;;;;;22.77;17.45;;;;;;;7.52;100.00;101212.66;10205967;28;20083;-66
2023/02/22 21:41:23;;;;;;;25.85;17.88;;;;;;;7.56;100.00;101211.00;10219178;28;20069;-66
2023/02/22 21:46:21;;;;;;;22.58;17.42;;;;;;;7.54;100.00;101211.31;10211811;28;20045;-66
2023/02/22 21:51:21;;;;;;;29.83;18.90;;;;;;;7.50;100.00;101215.69;10218300;28;20050;-66
2023/02/22 21:56:23;;;;;;;28.65;21.10;;;;;;;7.43;100.00;101203.53;10213405;28;20044;-66
2023/02/22 22:01:19;;;;;;;30.50;21.65;;;;;;;7.44;100.00;101205.13;10207132;28;20065;-66
2023/02/22 22:06:16;;;;;;;29.55;19.83;;;;;;;7.49;100.00;101208.63;10208407;28;20049;-66
2023/02/22 22:11:16;;;;;;;28.27;19.90;;;;;;;7.49;100.00;101202.38;10199049;28;20054;-66
2023/02/22 22:16:15;;;;;;;27.92;20.10;;;;;;;7.50;100.00;101204.00;10206461;28;20045;-66
2023/02/22 22:21:18;;;;;;;26.75;17.80;;;;;;;7.52;100.00;101201.78;10211798;28;20076;-66
2023/02/22 22:26:18;;;;;;;25.45;17.55;;;;;;;7.45;100.00;101196.69;10226013;28;20077;-66
2023/02/22 22:31:18;;;;;;;31.20;19.52;;;;;;;7.43;100.00;101206.25;10222591;28;20525;-66
2023/02/22 22:36:17;;;;;;;29.52;19.70;;;;;;;7.43;100.00;101198.09;10227509;28;20084;-66